This is the latest recevied weather packets stored in our database for station/object DM3FAM-13. If no packets are shown the sender has not sent any weather packets the latest 10 day(s).
| Time | Temp. | Humidity | Pressure | Rain* | Wind** | Luminosity | Snow |
|---|---|---|---|---|---|---|---|
| 1777894230 | 20° C | 49% | 1013.6 hPa | 0 mm | - | 230 W/m² | - |
| 1777893630 | 20° C | 47% | 1013.6 hPa | 0 mm | - | 297 W/m² | - |
| 1777893030 | 19.44° C | 50% | 1013.6 hPa | 0 mm | - | 465 W/m² | - |
| 1777892430 | 19.44° C | 51% | 1013.8 hPa | 0 mm | - | 284 W/m² | - |
| 1777891231 | 20° C | 49% | 1013.9 hPa | 0 mm | - | 240 W/m² | - |
| 1777890631 | 20° C | 47% | 1013.9 hPa | 0 mm | - | 210 W/m² | - |
| 1777890030 | 21.11° C | 44% | 1014.1 hPa | 0 mm | - | 233 W/m² | - |
| 1777889430 | 20° C | 44% | 1014.1 hPa | 0 mm | - | 511 W/m² | - |
| 1777888831 | 20° C | 43% | 1014.3 hPa | 0 mm | - | 356 W/m² | - |
| 1777888231 | 20.56° C | 43% | 1014.4 hPa | 0 mm | - | 340 W/m² | - |
| 1777887631 | 19.44° C | 43% | 1014.5 hPa | 0 mm | - | 490 W/m² | - |
| 1777887031 | 19.44° C | 43% | 1014.6 hPa | 0 mm | - | 319 W/m² | - |
| 1777886431 | 18.89° C | 44% | 1014.8 hPa | 0 mm | - | 343 W/m² | - |
| 1777885830 | 18.33° C | 49% | 1014.6 hPa | 0 mm | - | 240 W/m² | - |
| 1777885230 | 17.78° C | 55% | 1014.8 hPa | 0 mm | - | 220 W/m² | - |
| 1777884630 | 17.78° C | 58% | 1014.8 hPa | 0 mm | - | 186 W/m² | - |
| 1777884030 | 17.22° C | 59% | 1014.9 hPa | 0 mm | - | 165 W/m² | - |
| 1777883430 | 17.22° C | 58% | 1014.9 hPa | 0 mm | - | 161 W/m² | - |
| 1777882830 | 17.22° C | 56% | 1015 hPa | 0 mm | - | 155 W/m² | - |
| 1777882230 | 17.22° C | 57% | 1014.9 hPa | 0 mm | - | 156 W/m² | - |
| 1777881631 | 17.22° C | 57% | 1014.9 hPa | 0 mm | - | 147 W/m² | - |
| 1777881030 | 16.67° C | 60% | 1014.9 hPa | 0 mm | - | 144 W/m² | - |
| 1777880430 | 16.11° C | 63% | 1014.9 hPa | 0 mm | - | 149 W/m² | - |
| 1777879830 | 15.56° C | 63% | 1015 hPa | 0 mm | - | 133 W/m² | - |
| 1777879230 | 15° C | 67% | 1015 hPa | 0 mm | - | 129 W/m² | - |
* Rain latest hour (hover to see other rain measurements)
** Current wind speed in m/s (hover to see current wind gust speed)